Time;durP1;ratioP1;P1;durP2;ratioP2;P2;SDS_P1;SDS_P2;PMS_P1;PMS_P2;Temp;Humidity;BMP_temperature;BMP_pressure;BME280_temperature;BME280_humidity;BME280_pressure;Samples;Min_cycle;Max_cycle;Signal;HPM_P1;HPM_P2
2023/06/03 00:01:18;;;;;;;6.53;6.03;;;13.50;99.90;;;;;;5075678;28;20495;-87
2023/06/03 00:03:45;;;;;;;7.23;6.63;;;13.50;99.90;;;;;;5075580;28;20167;-87
2023/06/03 00:06:12;;;;;;;6.37;5.93;;;13.30;99.90;;;;;;5083562;28;20464;-87
2023/06/03 00:08:38;;;;;;;7.50;6.87;;;13.20;99.90;;;;;;5075299;28;20420;-86
2023/06/03 00:11:04;;;;;;;7.90;7.20;;;13.20;99.90;;;;;;5075316;28;20436;-87
2023/06/03 00:13:30;;;;;;;11.53;8.33;;;13.10;99.90;;;;;;5076865;28;20496;-86
2023/06/03 00:15:55;;;;;;;7.13;6.73;;;13.20;99.90;;;;;;5073429;28;20517;-87
2023/06/03 00:18:21;;;;;;;7.63;7.03;;;13.20;99.90;;;;;;5077347;28;20181;-87
2023/06/03 00:20:47;;;;;;;8.50;7.73;;;13.20;99.90;;;;;;5083341;28;20281;-86
2023/06/03 00:23:16;;;;;;;7.67;6.70;;;13.30;99.90;;;;;;5070490;28;20900;-87
2023/06/03 00:25:41;;;;;;;9.13;6.73;;;13.30;99.90;;;;;;5071560;28;20186;-86
2023/06/03 00:28:07;;;;;;;8.23;5.63;;;13.50;99.90;;;;;;5092259;28;20545;-87
2023/06/03 00:30:34;;;;;;;7.10;6.10;;;13.50;99.90;;;;;;5094292;28;20246;-86
2023/06/03 00:33:00;;;;;;;7.70;6.73;;;13.60;99.90;;;;;;5091524;28;20433;-88
2023/06/03 00:35:25;;;;;;;6.87;6.23;;;13.60;99.90;;;;;;5080645;28;20539;-87
2023/06/03 00:37:52;;;;;;;7.70;6.67;;;13.70;99.90;;;;;;5072253;28;20432;-87
2023/06/03 00:40:17;;;;;;;6.50;6.00;;;13.60;99.90;;;;;;5070756;28;20194;-87
2023/06/03 00:42:43;;;;;;;8.00;6.60;;;13.50;99.90;;;;;;5071500;28;20435;-87
2023/06/03 00:45:09;;;;;;;6.37;5.87;;;13.40;99.90;;;;;;5068673;28;20308;-88
2023/06/03 00:47:34;;;;;;;11.53;7.30;;;13.40;99.90;;;;;;5070826;28;20709;-86
2023/06/03 00:50:00;;;;;;;7.50;6.27;;;13.50;99.90;;;;;;5069887;28;20437;-87
2023/06/03 00:52:26;;;;;;;6.10;5.80;;;13.40;99.90;;;;;;5070018;28;20186;-87
2023/06/03 00:54:52;;;;;;;6.87;6.20;;;13.40;99.90;;;;;;5070618;28;20652;-87
2023/06/03 00:57:22;;;;;;;10.97;6.30;;;13.40;99.90;;;;;;5068903;28;20444;-87
2023/06/03 00:59:48;;;;;;;6.63;5.80;;;13.40;99.90;;;;;;5075015;28;20457;-87
2023/06/03 01:02:14;;;;;;;12.40;6.23;;;13.50;99.90;;;;;;5077652;28;20814;-87
2023/06/03 01:04:42;;;;;;;7.83;6.20;;;13.50;99.90;;;;;;5072412;28;20190;-86
2023/06/03 01:07:22;;;;;;;6.47;5.30;;;13.40;99.90;;;;;;5077473;28;20428;-87
2023/06/03 01:10:18;;;;;;;6.47;5.97;;;13.30;99.90;;;;;;5074163;28;20467;-87
2023/06/03 01:12:51;;;;;;;7.63;6.13;;;13.30;99.90;;;;;;5070008;28;20521;-86
2023/06/03 01:15:20;;;;;;;10.43;6.20;;;13.30;99.90;;;;;;5078486;28;20468;-87
2023/06/03 01:17:50;;;;;;;7.07;5.67;;;13.30;99.90;;;;;;5071477;28;20425;-86
2023/06/03 01:20:17;;;;;;;6.53;6.03;;;13.40;99.90;;;;;;5079244;28;20456;-87
2023/06/03 01:22:46;;;;;;;6.50;5.90;;;13.30;99.90;;;;;;5062709;28;20463;-86
2023/06/03 01:25:15;;;;;;;7.03;6.33;;;13.40;99.90;;;;;;5078356;28;20417;-86
2023/06/03 01:27:44;;;;;;;6.80;6.33;;;13.40;99.90;;;;;;5077374;28;20803;-87
2023/06/03 01:30:13;;;;;;;6.47;6.10;;;13.40;99.90;;;;;;5072290;28;20475;-87
2023/06/03 01:32:44;;;;;;;10.73;6.70;;;13.40;99.90;;;;;;5076808;28;20528;-88
2023/06/03 01:35:16;;;;;;;9.30;6.70;;;13.40;99.90;;;;;;5075791;28;20451;-87
2023/06/03 01:37:42;;;;;;;6.43;6.13;;;13.40;99.90;;;;;;5074208;28;20518;-87
2023/06/03 01:40:10;;;;;;;7.10;6.60;;;13.40;99.90;;;;;;5082308;28;20479;-87
2023/06/03 01:42:37;;;;;;;6.90;6.20;;;13.50;99.90;;;;;;5066556;28;20805;-87
2023/06/03 01:45:03;;;;;;;7.93;6.30;;;13.50;99.90;;;;;;5076877;28;20428;-87
2023/06/03 01:47:30;;;;;;;7.93;5.83;;;13.40;99.90;;;;;;5082103;28;20447;-86
2023/06/03 01:49:56;;;;;;;6.43;6.03;;;13.30;99.90;;;;;;5082211;28;20417;-88
2023/06/03 01:52:22;;;;;;;8.07;6.67;;;13.20;99.90;;;;;;5079632;28;20435;-88
2023/06/03 01:54:48;;;;;;;8.83;5.80;;;13.20;99.90;;;;;;5081679;28;20440;-88
2023/06/03 01:57:13;;;;;;;6.37;5.87;;;13.10;99.90;;;;;;5079507;28;20195;-86
2023/06/03 01:59:40;;;;;;;8.13;6.30;;;13.20;99.90;;;;;;5077099;28;20203;-87
2023/06/03 02:02:06;;;;;;;6.73;6.23;;;13.20;99.90;;;;;;5082539;28;20183;-87
2023/06/03 02:04:31;;;;;;;7.20;5.97;;;13.30;99.90;;;;;;5076391;28;20471;-86
2023/06/03 02:06:59;;;;;;;6.67;6.27;;;13.20;99.90;;;;;;5084188;28;20432;-87
2023/06/03 02:09:27;;;;;;;6.73;6.13;;;13.20;99.90;;;;;;5079984;28;20683;-86
2023/06/03 02:11:53;;;;;;;7.30;6.60;;;13.30;99.90;;;;;;5084180;28;20705;-86
2023/06/03 02:14:18;;;;;;;8.37;7.57;;;13.30;99.90;;;;;;5077796;28;20429;-86
2023/06/03 02:16:46;;;;;;;7.73;6.97;;;13.20;99.90;;;;;;5081637;28;20447;-86
2023/06/03 02:19:17;;;;;;;9.20;7.13;;;13.10;99.90;;;;;;5088180;28;20223;-86
2023/06/03 02:21:43;;;;;;;7.30;6.60;;;13.00;99.90;;;;;;5089429;28;20444;-76
2023/06/03 02:24:09;;;;;;;7.77;7.13;;;12.90;99.90;;;;;;5095778;28;20424;-86
2023/06/03 02:26:36;;;;;;;6.70;6.37;;;12.90;99.90;;;;;;5104563;28;20444;-86
2023/06/03 02:29:02;;;;;;;8.83;6.63;;;13.00;99.90;;;;;;5083760;28;20446;-86
2023/06/03 02:31:29;;;;;;;11.40;7.30;;;13.00;99.90;;;;;;5079228;28;20476;-86
2023/06/03 02:33:55;;;;;;;8.13;7.40;;;13.00;99.90;;;;;;5081537;28;20431;-86
2023/06/03 02:36:20;;;;;;;8.67;7.53;;;13.00;99.90;;;;;;5078398;28;20437;-86
2023/06/03 02:38:47;;;;;;;8.07;6.90;;;13.10;99.90;;;;;;5077401;28;20170;-86
2023/06/03 02:41:13;;;;;;;8.87;7.97;;;13.10;99.90;;;;;;5082854;28;20198;-86
2023/06/03 02:43:40;;;;;;;8.83;7.00;;;13.00;99.90;;;;;;5078453;28;20421;-85
2023/06/03 02:46:06;;;;;;;8.50;7.20;;;13.00;99.90;;;;;;5080592;28;20847;-86
2023/06/03 02:48:31;;;;;;;8.07;7.37;;;13.10;99.90;;;;;;5077907;28;20437;-86
2023/06/03 02:50:57;;;;;;;8.13;7.10;;;13.10;99.90;;;;;;5076608;28;20305;-87
2023/06/03 02:53:23;;;;;;;14.40;7.67;;;13.00;99.90;;;;;;5077665;28;20182;-86
2023/06/03 02:55:48;;;;;;;9.80;7.20;;;13.10;99.90;;;;;;5074526;28;20550;-86
2023/06/03 02:58:15;;;;;;;14.47;7.83;;;13.00;99.90;;;;;;5082061;28;20187;-86
2023/06/03 03:00:41;;;;;;;8.50;7.57;;;13.00;99.90;;;;;;5077041;28;20669;-86
2023/06/03 03:03:06;;;;;;;11.70;8.20;;;12.90;99.90;;;;;;5087620;28;20462;-87
2023/06/03 03:05:32;;;;;;;9.17;7.40;;;12.90;99.90;;;;;;5079790;28;20194;-85
2023/06/03 03:08:01;;;;;;;8.97;8.03;;;13.00;99.90;;;;;;5076703;28;20205;-87
2023/06/03 03:10:27;;;;;;;12.27;7.60;;;12.90;99.90;;;;;;5079713;28;20450;-87
2023/06/03 03:12:52;;;;;;;8.73;7.63;;;12.90;99.90;;;;;;5086605;28;20429;-87
2023/06/03 03:15:18;;;;;;;12.63;8.10;;;12.90;99.90;;;;;;5081047;28;20202;-87
2023/06/03 03:17:44;;;;;;;9.97;8.33;;;12.90;99.90;;;;;;5078795;28;20222;-88
2023/06/03 03:20:10;;;;;;;14.07;9.30;;;12.80;99.90;;;;;;5081999;28;20232;-86
2023/06/03 03:22:40;;;;;;;11.80;8.83;;;12.70;99.90;;;;;;5081623;28;20439;-86
2023/06/03 03:25:06;;;;;;;11.80;9.57;;;12.80;99.90;;;;;;5074997;28;20456;-87
2023/06/03 03:27:32;;;;;;;8.93;8.13;;;12.80;99.90;;;;;;5078257;28;21012;-88
2023/06/03 03:30:01;;;;;;;8.57;7.87;;;12.70;99.90;;;;;;5085371;28;20479;-88
2023/06/03 03:32:27;;;;;;;10.87;8.67;;;12.70;99.90;;;;;;5075923;28;20520;-88
2023/06/03 03:35:14;;;;;;;8.73;7.90;;;12.80;99.90;;;;;;5084846;28;20675;-88
2023/06/03 03:37:40;;;;;;;8.87;7.97;;;12.70;99.90;;;;;;5076688;28;20198;-87
2023/06/03 03:40:18;;;;;;;8.90;8.10;;;12.50;99.90;;;;;;5086027;28;20465;-87
2023/06/03 03:42:52;;;;;;;9.53;8.23;;;12.50;99.90;;;;;;5080844;28;20537;-86
2023/06/03 03:45:21;;;;;;;8.37;7.53;;;12.50;99.90;;;;;;5078403;28;20409;-87
2023/06/03 03:47:51;;;;;;;9.10;8.40;;;12.50;99.90;;;;;;5065634;28;20530;-85
2023/06/03 03:50:25;;;;;;;11.40;8.97;;;12.60;99.90;;;;;;5082627;28;20435;-87
2023/06/03 03:52:51;;;;;;;9.10;8.23;;;12.60;99.90;;;;;;5078071;28;20440;-87
2023/06/03 03:55:17;;;;;;;8.17;7.30;;;12.50;99.90;;;;;;5076032;28;20440;-87
2023/06/03 03:57:42;;;;;;;7.90;7.03;;;12.50;99.90;;;;;;5091302;28;20729;-87
2023/06/03 04:00:09;;;;;;;10.80;7.60;;;12.50;99.90;;;;;;5081888;28;20214;-87
2023/06/03 04:02:41;;;;;;;9.10;8.20;;;12.50;99.90;;;;;;5080699;28;20186;-87
2023/06/03 04:05:08;;;;;;;8.87;7.90;;;;;;;;;;5071405;28;20417;-87
2023/06/03 04:07:38;;;;;;;9.80;7.00;;;12.60;99.90;;;;;;5082052;28;20596;-86
2023/06/03 04:10:08;;;;;;;8.83;8.00;;;12.60;99.90;;;;;;5079352;28;20412;-88
2023/06/03 04:12:36;;;;;;;7.10;6.40;;;12.50;99.90;;;;;;5070236;28;20441;-87
2023/06/03 04:15:06;;;;;;;13.63;7.13;;;12.50;99.90;;;;;;5091771;28;20416;-87
2023/06/03 04:17:37;;;;;;;7.47;6.87;;;12.50;99.90;;;;;;5096372;28;20488;-85
2023/06/03 04:20:09;;;;;;;8.13;7.33;;;12.60;99.90;;;;;;5092863;28;20628;-86
2023/06/03 04:22:35;;;;;;;7.70;6.87;;;12.60;99.90;;;;;;5084974;28;20437;-86
2023/06/03 04:25:07;;;;;;;8.40;7.80;;;12.60;99.90;;;;;;5081837;28;20448;-87
2023/06/03 04:27:32;;;;;;;9.40;6.63;;;12.40;99.90;;;;;;5070325;28;21098;-85
2023/06/03 04:29:58;;;;;;;9.53;7.43;;;12.40;99.90;;;;;;5069155;28;20428;-86
2023/06/03 04:32:23;;;;;;;8.23;7.50;;;12.30;99.90;;;;;;5068738;28;20201;-87
2023/06/03 04:34:54;;;;;;;7.37;6.90;;;12.30;99.90;;;;;;5071953;28;20189;-88
2023/06/03 04:37:21;;;;;;;7.97;7.37;;;12.40;99.90;;;;;;5070788;28;20196;-87
2023/06/03 04:39:48;;;;;;;7.97;6.40;;;12.50;99.90;;;;;;5066961;28;20811;-88
2023/06/03 04:42:15;;;;;;;7.63;6.10;;;12.60;99.90;;;;;;5067120;28;20433;-87
2023/06/03 04:44:42;;;;;;;11.30;6.10;;;12.70;99.90;;;;;;5075533;28;20475;-88
2023/06/03 04:47:10;;;;;;;8.17;7.40;;;12.90;99.90;;;;;;5085933;28;20471;-87
2023/06/03 04:49:37;;;;;;;7.27;6.57;;;13.20;99.90;;;;;;5071511;28;20413;-88
2023/06/03 04:52:03;;;;;;;7.37;6.30;;;13.60;99.90;;;;;;5075625;28;20432;-83
2023/06/03 04:54:29;;;;;;;7.20;6.60;;;14.00;99.90;;;;;;5072521;28;20417;-88
2023/06/03 04:56:54;;;;;;;6.80;6.10;;;14.20;99.90;;;;;;5070895;28;20919;-87
2023/06/03 04:59:20;;;;;;;7.23;6.63;;;14.50;99.90;;;;;;5070740;28;20194;-87
2023/06/03 05:01:48;;;;;;;6.40;6.00;;;14.70;99.90;;;;;;5065735;28;20209;-88
2023/06/03 05:04:19;;;;;;;6.07;5.60;;;14.90;99.90;;;;;;5069147;28;20181;-86
2023/06/03 05:06:46;;;;;;;7.90;6.30;;;14.80;99.90;;;;;;5068824;28;20452;-88
2023/06/03 05:09:12;;;;;;;6.33;5.83;;;14.80;99.90;;;;;;5068326;28;20428;-88
2023/06/03 05:11:38;;;;;;;5.50;5.30;;;14.80;99.90;;;;;;5075768;28;20452;-88
2023/06/03 05:14:04;;;;;;;6.30;5.67;;;15.00;99.90;;;;;;5069577;28;20460;-87
2023/06/03 05:16:29;;;;;;;5.80;5.50;;;15.00;99.90;;;;;;5070501;28;20266;-88
2023/06/03 05:18:55;;;;;;;5.97;5.40;;;15.00;99.90;;;;;;5071762;28;20538;-88
2023/06/03 05:21:21;;;;;;;5.83;5.63;;;14.90;99.90;;;;;;5071051;28;20235;-89
2023/06/03 05:23:46;;;;;;;6.33;6.03;;;15.00;99.90;;;;;;5063242;28;20256;-88
2023/06/03 05:26:12;;;;;;;5.20;4.77;;;15.30;99.90;;;;;;5069209;28;20178;-88
2023/06/03 05:28:38;;;;;;;6.23;5.77;;;15.10;99.90;;;;;;5065202;28;20182;-87
2023/06/03 05:31:03;;;;;;;4.77;4.57;;;15.00;99.90;;;;;;5067223;28;20185;-88
2023/06/03 05:33:32;;;;;;;7.70;7.00;;;15.10;99.90;;;;;;5064337;28;20182;-88
2023/06/03 05:35:58;;;;;;;5.73;5.23;;;15.50;99.90;;;;;;5072240;28;20194;-85
2023/06/03 05:38:24;;;;;;;5.00;4.60;;;16.00;99.90;;;;;;5070386;28;20490;-84
2023/06/03 05:40:51;;;;;;;10.43;5.37;;;15.80;99.90;;;;;;5073722;28;20609;-88
2023/06/03 05:43:17;;;;;;;5.67;5.27;;;15.70;99.90;;;;;;5073907;28;20490;-89
2023/06/03 05:45:43;;;;;;;5.37;5.13;;;16.30;99.90;;;;;;5074055;28;20486;-88
2023/06/03 05:48:10;;;;;;;4.60;4.30;;;16.80;99.90;;;;;;5073601;28;20448;-89
2023/06/03 05:50:50;;;;;;;4.63;4.43;;;16.60;99.90;;;;;;5081168;28;20405;-87
2023/06/03 05:53:24;;;;;;;7.90;4.87;;;16.90;99.90;;;;;;5081343;28;20486;-88
2023/06/03 05:55:50;;;;;;;4.60;4.30;;;16.90;99.30;;;;;;5083099;28;20436;-87
2023/06/03 05:58:17;;;;;;;5.53;5.00;;;17.60;98.30;;;;;;5087478;28;20425;-88
2023/06/03 06:00:43;;;;;;;4.50;4.20;;;18.00;96.50;;;;;;5073592;28;20471;-87
2023/06/03 06:03:12;;;;;;;4.40;4.20;;;18.10;93.70;;;;;;5077930;28;20415;-88
2023/06/03 06:05:38;;;;;;;4.63;4.00;;;18.20;92.40;;;;;;5085496;28;20635;-88
2023/06/03 06:08:04;;;;;;;4.60;4.27;;;18.10;92.10;;;;;;5091738;28;20500;-88
2023/06/03 06:10:30;;;;;;;4.20;3.90;;;18.30;91.60;;;;;;5092495;28;20169;-83
2023/06/03 06:12:55;;;;;;;5.10;3.97;;;18.30;91.00;;;;;;5093757;28;20428;-88
2023/06/03 06:15:21;;;;;;;3.67;3.57;;;18.10;88.50;;;;;;5095247;28;20185;-87
2023/06/03 06:17:47;;;;;;;3.83;3.57;;;18.50;88.30;;;;;;5076855;28;20542;-87
2023/06/03 06:20:12;;;;;;;3.53;3.33;;;18.50;87.20;;;;;;5075916;28;20260;-87
2023/06/03 06:22:38;;;;;;;3.30;2.97;;;19.10;84.00;;;;;;5073307;28;20736;-87
2023/06/03 06:25:08;;;;;;;3.93;3.60;;;19.60;81.20;;;;;;5070875;28;20220;-86
2023/06/03 06:27:34;;;;;;;3.00;2.80;;;19.70;76.70;;;;;;5074130;28;20565;-88
2023/06/03 06:30:00;;;;;;;3.17;2.70;;;20.10;72.50;;;;;;5069334;28;20445;-88
2023/06/03 06:32:26;;;;;;;3.23;3.03;;;20.40;69.90;;;;;;5069675;28;20432;-87
2023/06/03 06:34:52;;;;;;;3.33;2.97;;;20.60;67.70;;;;;;5069143;28;20786;-87
2023/06/03 06:37:19;;;;;;;2.90;2.90;;;20.60;62.80;;;;;;5069015;28;20561;-88
2023/06/03 06:39:46;;;;;;;2.57;2.43;;;20.10;62.20;;;;;;5065166;28;21169;-87
2023/06/03 06:42:23;;;;;;;3.63;3.30;;;20.40;60.20;;;;;;5070936;28;20432;-88
2023/06/03 06:44:50;;;;;;;2.63;2.63;;;19.70;61.60;;;;;;5073521;28;20587;-90
2023/06/03 06:47:24;;;;;;;2.70;2.50;;;20.50;59.70;;;;;;5074154;28;20551;-89
2023/06/03 06:49:50;;;;;;;2.97;2.80;;;21.00;58.00;;;;;;5072613;28;20492;-89
2023/06/03 06:52:16;;;;;;;2.60;2.50;;;20.80;56.60;;;;;;5072289;28;20448;-88
2023/06/03 06:54:42;;;;;;;4.97;2.33;;;20.60;56.60;;;;;;5076169;28;20437;-88
2023/06/03 06:57:21;;;;;;;2.43;2.20;;;20.90;56.40;;;;;;5080120;28;20198;-87
2023/06/03 06:59:48;;;;;;;2.87;2.40;;;20.60;55.30;;;;;;5079446;28;20448;-88
2023/06/03 07:02:15;;;;;;;3.70;2.43;;;20.90;54.90;;;;;;5088511;28;20417;-85
2023/06/03 07:04:40;;;;;;;2.40;2.30;;;20.90;54.10;;;;;;5087630;28;20426;-88
2023/06/03 07:07:06;;;;;;;2.40;2.20;;;20.40;54.70;;;;;;5073283;28;20496;-88
2023/06/03 07:09:31;;;;;;;3.00;2.17;;;20.00;54.00;;;;;;5070167;28;20198;-86
2023/06/03 07:11:58;;;;;;;3.07;2.37;;;20.00;54.80;;;;;;5088285;28;20195;-86
2023/06/03 07:14:23;;;;;;;2.30;2.10;;;20.40;54.20;;;;;;5084930;28;20451;-87
2023/06/03 07:16:49;;;;;;;2.10;2.00;;;20.60;53.50;;;;;;5085660;28;20508;-87
2023/06/03 07:19:15;;;;;;;5.23;2.03;;;20.20;53.40;;;;;;5085621;28;20210;-87
2023/06/03 07:21:41;;;;;;;2.00;1.90;;;20.80;53.70;;;;;;5077435;28;20190;-77
2023/06/03 07:24:09;;;;;;;1.83;1.80;;;20.80;53.00;;;;;;5080536;28;20481;-86
2023/06/03 07:26:35;;;;;;;2.00;1.90;;;20.50;52.90;;;;;;5079648;28;20196;-86
2023/06/03 07:29:00;;;;;;;2.00;2.00;;;21.30;53.10;;;;;;5076949;28;20429;-87
2023/06/03 07:31:28;;;;;;;2.50;1.73;;;21.80;52.60;;;;;;5073556;28;20439;-86
2023/06/03 07:33:56;;;;;;;2.67;2.67;;;22.60;52.20;;;;;;5086126;28;20193;-87
2023/06/03 07:36:26;;;;;;;7.60;2.10;;;22.80;50.60;;;;;;5081307;28;20471;-86
2023/06/03 07:39:03;;;;;;;1.70;1.70;;;22.30;50.70;;;;;;5085246;28;20405;-88
2023/06/03 07:42:06;;;;;;;2.43;2.20;;;23.20;50.50;;;;;;5083480;28;20456;-88
2023/06/03 07:44:43;;;;;;;2.67;2.57;;;23.20;49.40;;;;;;5109448;28;20422;-87
2023/06/03 07:47:12;;;;;;;4.23;1.93;;;23.90;49.00;;;;;;5082884;28;20441;-85
2023/06/03 07:49:38;;;;;;;2.00;1.90;;;23.70;48.00;;;;;;5069499;28;21172;-87
2023/06/03 07:52:04;;;;;;;4.70;2.13;;;23.20;47.80;;;;;;5061769;28;20442;-87
2023/06/03 07:54:29;;;;;;;2.03;1.90;;;23.40;48.00;;;;;;5059620;28;20431;-87
2023/06/03 07:56:57;;;;;;;1.37;1.27;;;23.10;47.70;;;;;;5073835;28;20178;-86
2023/06/03 07:59:23;;;;;;;3.17;1.83;;;23.00;47.30;;;;;;5060633;28;20191;-87
2023/06/03 08:01:53;;;;;;;1.53;1.53;;;23.00;46.70;;;;;;5067786;28;20420;-85
2023/06/03 08:04:28;;;;;;;2.53;1.60;;;22.70;47.30;;;;;;5071697;28;20914;-87
2023/06/03 08:07:00;;;;;;;2.40;1.97;;;23.60;46.90;;;;;;5088600;28;20423;-87
2023/06/03 08:09:36;;;;;;;2.77;1.43;;;23.40;46.40;;;;;;5086884;28;20433;-87
2023/06/03 08:12:08;;;;;;;1.43;1.43;;;23.40;46.40;;;;;;5083236;28;20465;-87
2023/06/03 08:14:35;;;;;;;1.40;1.30;;;22.60;46.20;;;;;;5061428;28;20523;-86
2023/06/03 08:17:11;;;;;;;1.97;1.90;;;23.10;46.00;;;;;;5070260;28;20919;-86
2023/06/03 08:19:37;;;;;;;2.40;2.20;;;23.90;45.90;;;;;;5068937;28;20476;-88
2023/06/03 08:22:17;;;;;;;1.43;1.33;;;24.50;45.00;;;;;;5061385;28;20418;-88
2023/06/03 08:24:43;;;;;;;1.47;1.47;;;24.90;44.50;;;;;;5067234;28;21385;-87
2023/06/03 08:27:08;;;;;;;1.50;1.50;;;24.70;44.50;;;;;;5070163;28;20428;-83
2023/06/03 08:29:34;;;;;;;2.97;2.27;;;24.40;44.30;;;;;;5075589;28;20201;-84
2023/06/03 08:32:00;;;;;;;1.70;1.70;;;25.30;44.10;;;;;;5079811;28;20238;-84
2023/06/03 08:34:25;;;;;;;5.30;1.80;;;25.10;42.90;;;;;;5093018;28;20183;-87
2023/06/03 08:36:51;;;;;;;1.77;1.67;;;24.10;43.20;;;;;;5086147;28;20187;-88
2023/06/03 08:39:17;;;;;;;3.10;1.63;;;23.60;43.40;;;;;;5083712;28;20190;-89
2023/06/03 08:41:48;;;;;;;1.50;1.50;;;24.30;43.50;;;;;;5090691;28;20281;-88
2023/06/03 08:49:31;;;;;;;1.83;1.73;;;25.50;42.80;;;;;;5071842;22;20237;-83
2023/06/03 08:52:08;;;;;;;1.57;1.57;;;25.30;42.80;;;;;;5035717;28;20433;-84
2023/06/03 08:55:09;;;;;;;3.13;1.93;;;;;;;;;;5041904;28;20480;-88
2023/06/03 08:57:43;;;;;;;1.50;1.50;;;27.00;41.00;;;;;;5036630;28;20770;-82
2023/06/03 09:00:12;;;;;;;3.87;1.97;;;27.20;40.60;;;;;;5027955;28;20464;-87
2023/06/03 09:02:38;;;;;;;2.00;1.77;;;27.10;40.90;;;;;;5029731;28;20470;-87
2023/06/03 09:05:05;;;;;;;1.83;1.53;;;27.80;40.50;;;;;;5035896;28;20493;-87
2023/06/03 09:07:31;;;;;;;2.73;2.00;;;27.20;39.90;;;;;;5040740;28;20660;-88
2023/06/03 09:09:59;;;;;;;1.30;1.30;;;28.10;40.00;;;;;;5033827;28;20485;-87
2023/06/03 09:12:27;;;;;;;2.00;1.20;;;28.10;39.00;;;;;;5038804;28;20450;-88
2023/06/03 09:14:54;;;;;;;2.30;1.20;;;27.40;39.10;;;;;;5038937;28;20427;-86
2023/06/03 09:17:24;;;;;;;3.03;1.90;;;27.80;39.10;;;;;;5034194;28;20537;-85
2023/06/03 09:19:50;;;;;;;1.50;1.40;;;28.30;39.00;;;;;;5034941;28;20450;-86
2023/06/03 09:22:17;;;;;;;1.40;1.30;;;27.90;38.50;;;;;;5020745;28;21153;-87
2023/06/03 09:24:43;;;;;;;1.63;1.60;;;27.40;38.70;;;;;;5035394;28;20430;-86
2023/06/03 09:27:09;;;;;;;1.60;1.50;;;26.80;38.70;;;;;;5045347;28;20495;-82
2023/06/03 09:29:34;;;;;;;2.27;1.43;;;26.90;38.70;;;;;;5040499;28;20235;-85
2023/06/03 09:32:01;;;;;;;1.43;1.43;;;27.80;38.50;;;;;;5039656;28;20202;-86
2023/06/03 09:34:27;;;;;;;2.00;1.53;;;29.10;38.20;;;;;;5043180;28;20195;-86
2023/06/03 09:36:53;;;;;;;2.73;1.40;;;29.00;37.60;;;;;;5042610;28;20950;-86
2023/06/03 09:39:34;;;;;;;3.97;3.67;;;29.20;37.60;;;;;;5037658;28;20425;-86
2023/06/03 09:42:00;;;;;;;1.73;1.63;;;29.30;37.20;;;;;;5031848;28;20211;-87
2023/06/03 09:44:36;;;;;;;1.90;1.80;;;28.70;37.10;;;;;;5039013;28;20426;-85
2023/06/03 09:47:04;;;;;;;1.60;1.27;;;28.50;37.20;;;;;;5029094;28;20218;-87
2023/06/03 09:49:30;;;;;;;4.00;3.67;;;27.90;37.40;;;;;;5039950;28;20461;-86
2023/06/03 09:51:55;;;;;;;2.80;1.50;;;27.90;37.80;;;;;;5049961;28;20933;-87
2023/06/03 09:54:23;;;;;;;2.70;2.50;;;26.40;37.60;;;;;;5032897;28;20649;-86
2023/06/03 09:56:51;;;;;;;3.67;2.20;;;26.90;38.20;;;;;;5036723;28;20192;-87
2023/06/03 09:59:25;;;;;;;4.07;3.60;;;26.80;38.40;;;;;;5033626;28;20419;-86
2023/06/03 10:01:53;;;;;;;2.07;2.00;;;26.60;38.30;;;;;;5023393;28;20532;-85
2023/06/03 10:04:39;;;;;;;1.80;1.73;;;26.70;38.20;;;;;;5026654;28;20437;-85
2023/06/03 10:07:12;;;;;;;1.40;1.30;;;25.70;39.10;;;;;;5040013;28;20526;-87
2023/06/03 10:09:38;;;;;;;1.50;1.40;;;26.50;38.70;;;;;;5042997;28;20478;-87
2023/06/03 10:12:05;;;;;;;1.67;1.67;;;26.50;38.40;;;;;;5036217;28;20444;-88
2023/06/03 10:14:31;;;;;;;2.00;2.00;;;27.30;38.40;;;;;;5026737;28;20489;-86
2023/06/03 10:17:04;;;;;;;1.70;1.60;;;28.40;38.00;;;;;;5029413;28;20431;-85
2023/06/03 10:19:35;;;;;;;2.50;2.30;;;28.50;37.90;;;;;;5027491;28;20664;-82
2023/06/03 10:22:01;;;;;;;1.60;1.53;;;29.40;37.50;;;;;;5026286;28;20442;-85
2023/06/03 10:24:29;;;;;;;3.10;2.10;;;29.40;36.50;;;;;;5032013;28;20445;-86
2023/06/03 10:26:55;;;;;;;3.13;2.83;;;29.40;36.80;;;;;;5036864;28;20438;-86
2023/06/03 10:29:21;;;;;;;2.20;2.00;;;29.00;36.70;;;;;;5036289;28;20427;-85
2023/06/03 10:31:51;;;;;;;3.03;2.93;;;29.10;36.90;;;;;;5024979;28;20455;-85
2023/06/03 10:34:17;;;;;;;2.23;1.90;;;29.20;36.10;;;;;;5030019;28;20473;-83
2023/06/03 10:36:44;;;;;;;3.83;1.70;;;29.10;36.40;;;;;;5025702;28;20969;-85
2023/06/03 10:39:10;;;;;;;5.70;2.13;;;29.20;36.20;;;;;;5036507;28;20726;-84
2023/06/03 10:41:38;;;;;;;1.60;1.60;;;29.70;36.20;;;;;;5017597;28;20415;-84
2023/06/03 10:44:04;;;;;;;2.20;2.00;;;28.80;36.00;;;;;;5021766;28;20505;-82
2023/06/03 10:46:30;;;;;;;2.17;2.00;;;28.90;36.00;;;;;;5020265;28;20434;-83
2023/06/03 10:48:57;;;;;;;2.17;2.13;;;27.40;36.70;;;;;;5021157;28;20640;-84
2023/06/03 10:51:50;;;;;;;2.00;1.77;;;28.10;36.60;;;;;;5020624;28;20689;-81
2023/06/03 10:54:32;;;;;;;5.37;2.10;;;28.80;36.10;;;;;;5026024;28;21112;-85
2023/06/03 10:57:05;;;;;;;1.87;1.77;;;30.00;35.60;;;;;;5018856;28;20415;-81
2023/06/03 10:59:41;;;;;;;2.13;2.03;;;29.00;35.50;;;;;;5014300;28;20536;-82
2023/06/03 11:02:07;;;;;;;2.50;2.27;;;29.00;36.00;;;;;;5022733;28;20490;-81
2023/06/03 11:04:36;;;;;;;2.27;2.17;;;29.80;35.80;;;;;;5021686;28;20446;-81
2023/06/03 11:07:03;;;;;;;1.70;1.70;;;30.00;34.80;;;;;;5036198;28;20415;-81
2023/06/03 11:09:38;;;;;;;3.73;2.27;;;29.40;35.00;;;;;;5034805;28;20435;-85
2023/06/03 11:12:13;;;;;;;3.07;2.50;;;30.00;34.90;;;;;;5049441;28;20442;-87
2023/06/03 11:14:48;;;;;;;2.07;1.97;;;29.90;35.00;;;;;;5044628;28;20442;-83
2023/06/03 11:17:15;;;;;;;5.20;2.50;;;29.30;35.10;;;;;;5039799;28;20704;-86
2023/06/03 11:19:44;;;;;;;4.10;2.17;;;29.40;35.20;;;;;;5074384;22;20496;-84
2023/06/03 11:22:13;;;;;;;1.90;1.80;;;29.60;35.00;;;;;;5060463;28;20438;-84
2023/06/03 11:24:41;;;;;;;1.90;1.90;;;30.50;34.70;;;;;;5057608;28;20472;-85
2023/06/03 11:27:13;;;;;;;3.20;2.20;;;31.40;34.40;;;;;;5055829;28;20505;-84
2023/06/03 11:29:48;;;;;;;3.50;3.00;;;30.50;34.10;;;;;;5064229;28;20453;-85
2023/06/03 11:32:24;;;;;;;2.43;2.23;;;29.10;34.50;;;;;;5057294;22;20495;-91
2023/06/03 11:34:51;;;;;;;2.27;2.17;;;29.10;35.10;;;;;;5019607;28;20408;-87
2023/06/03 11:37:19;;;;;;;2.30;2.10;;;28.60;35.10;;;;;;5028323;28;20420;-84
2023/06/03 11:40:21;;;;;;;3.33;3.30;;;29.10;34.70;;;;;;5029841;28;20466;-83
2023/06/03 11:42:47;;;;;;;4.00;2.60;;;30.10;35.00;;;;;;5027833;28;20531;-87
2023/06/03 11:45:21;;;;;;;3.17;2.20;;;28.80;34.70;;;;;;5025441;28;20981;-85
2023/06/03 11:47:51;;;;;;;5.27;2.20;;;29.30;34.40;;;;;;5019564;28;20708;-85
2023/06/03 11:50:17;;;;;;;2.20;2.10;;;29.80;34.10;;;;;;5020906;28;20463;-85
2023/06/03 11:52:43;;;;;;;2.10;1.97;;;29.50;34.40;;;;;;5015312;28;20436;-83
2023/06/03 11:55:09;;;;;;;1.97;1.93;;;29.10;34.40;;;;;;5025660;28;20440;-85
2023/06/03 11:57:35;;;;;;;1.90;1.90;;;29.00;34.40;;;;;;5019946;28;20229;-85
2023/06/03 12:00:07;;;;;;;2.60;2.40;;;29.30;34.80;;;;;;5017930;28;20208;-88
2023/06/03 12:02:40;;;;;;;2.30;1.93;;;30.00;34.30;;;;;;5023392;28;20204;-84
2023/06/03 12:05:08;;;;;;;5.00;2.53;;;31.10;33.90;;;;;;5030068;28;20418;-86
2023/06/03 12:07:36;;;;;;;4.83;2.27;;;31.20;33.70;;;;;;5017927;28;20463;-86
2023/06/03 12:10:04;;;;;;;1.60;1.57;;;31.10;33.30;;;;;;5008618;28;20475;-83
2023/06/03 12:12:35;;;;;;;2.20;2.10;;;30.50;33.10;;;;;;5010440;28;20422;-85
2023/06/03 12:15:05;;;;;;;4.80;2.37;;;31.20;33.40;;;;;;5014342;28;20427;-88
2023/06/03 12:17:31;;;;;;;1.73;1.73;;;31.70;32.70;;;;;;4997492;28;20620;-85
2023/06/03 12:19:59;;;;;;;2.37;2.27;;;32.10;32.80;;;;;;5008152;28;20427;-87
2023/06/03 12:22:27;;;;;;;3.50;2.33;;;;;;;;;;5006883;28;20237;-89
2023/06/03 12:24:53;;;;;;;4.00;3.90;;;32.80;32.10;;;;;;5015588;28;20443;-88
2023/06/03 12:27:25;;;;;;;2.10;2.00;;;32.40;32.50;;;;;;5004172;28;20841;-89
2023/06/03 12:29:57;;;;;;;2.87;2.70;;;31.40;32.70;;;;;;5014188;28;20531;-86
2023/06/03 12:32:28;;;;;;;2.20;2.13;;;30.00;32.80;;;;;;5012169;28;20495;-85
2023/06/03 12:34:55;;;;;;;2.03;2.03;;;30.00;33.50;;;;;;5002823;28;20441;-87
2023/06/03 12:37:27;;;;;;;4.10;2.67;;;31.10;33.20;;;;;;5004394;28;20866;-85
2023/06/03 12:39:52;;;;;;;2.00;2.00;;;30.20;33.10;;;;;;5008841;28;20463;-86
2023/06/03 12:42:21;;;;;;;2.00;1.97;;;30.00;33.40;;;;;;5001047;28;20436;-88
2023/06/03 12:44:49;;;;;;;2.13;2.00;;;30.70;33.20;;;;;;5009334;28;20175;-86
2023/06/03 12:47:17;;;;;;;2.00;2.00;;;30.60;33.20;;;;;;4997523;28;20456;-84
2023/06/03 12:49:45;;;;;;;3.27;2.30;;;31.00;33.00;;;;;;5010030;28;20468;-83
2023/06/03 12:52:20;;;;;;;1.97;1.70;;;31.10;33.00;;;;;;5001142;28;20458;-86
2023/06/03 12:54:52;;;;;;;2.87;2.50;;;31.10;32.70;;;;;;5011053;28;20492;-83
2023/06/03 12:57:18;;;;;;;2.43;2.43;;;30.60;33.00;;;;;;5012441;28;20446;-86
2023/06/03 13:00:09;;;;;;;10.03;2.70;;;31.30;32.70;;;;;;5002383;28;20428;-86